^^
Station Historical Data
Daily Summary for May 14, 2017 Units:  Both    English   Metric
« Previous Day
Next Day »
Daily Weekly Monthly Yearly Custom
  High: Low: Average:
Temperature: 75.7 °F /  24.3 °C 47.7 °F /  8.7 °C 60.6 °F /  15.9 °C
Dew Point: 38.3 °F /  3.5 °C 26.8 °F /  -2.9 °C 32.1 °F /  0.1 °C
Humidity: 57% 18% 37%
Wind Speed: 6.9mph /  11.1km/h - 1.2mph /  1.9km/h
Wind Gust: 14.0mph /  22.5km/h - -
Wind- - SE
Pressure: 30.08 in /  1018.5 hPa 29.96 in /  1014.4 hPa -
Precipitation: 0.00 in /  0 mm    
Historical Graphs
 
 
Tabular Data for May 14, 2017
Time Temperature Dew Point Pressure Wind Wind Speed Wind Gust Humidity Rainfall Rate (Hourly) solar Conditions
00:02 52.3 °F /  11.3 °C 33.8 °F /  1 °C 30.03in /  1016.8hPa Calm   1.0mph /  1.6km/h 49% 0.00in /  0mm 0.0 W/m2
00:08 52.2 °F /  11.2 °C 33.6 °F /  0.9 °C 30.03in /  1016.8hPa Calm   1.0mph /  1.6km/h 49% 0.00in /  0mm 0.0 W/m2
00:14 51.8 °F /  11 °C 33.3 °F /  0.7 °C 30.04in /  1017.2hPa Calm   1.0mph /  1.6km/h 49% 0.00in /  0mm 0.0 W/m2
00:20 51.6 °F /  10.9 °C 33.6 °F /  0.9 °C 30.04in /  1017.2hPa Calm   1.0mph /  1.6km/h 50% 0.00in /  0mm 0.0 W/m2
00:27 51.3 °F /  10.7 °C 33.3 °F /  0.7 °C 30.03in /  1016.8hPa East 0.9mph /  1.4km/h 2.0mph /  3.2km/h 50% 0.00in /  0mm 0.0 W/m2
00:33 51.3 °F /  10.7 °C 33.8 °F /  1 °C 30.03in /  1016.8hPa Calm     51% 0.00in /  0mm 0.0 W/m2
00:39 51.1 °F /  10.6 °C 33.6 °F /  0.9 °C 30.04in /  1017.2hPa Calm     51% 0.00in /  0mm 0.0 W/m2
00:45 50.7 °F /  10.4 °C 33.3 °F /  0.7 °C 30.04in /  1017.2hPa Calm     51% 0.00in /  0mm 0.0 W/m2
00:51 50.5 °F /  10.3 °C 33.1 °F /  0.6 °C 30.03in /  1016.8hPa East 0.9mph /  1.4km/h 3.0mph /  4.8km/h 51% 0.00in /  0mm 0.0 W/m2
00:57 50.4 °F /  10.2 °C 33.4 °F /  0.8 °C 30.03in /  1016.8hPa Calm   2.0mph /  3.2km/h 52% 0.00in /  0mm 0.0 W/m2
01:03 50.4 °F /  10.2 °C 32.9 °F /  0.5 °C 30.03in /  1016.8hPa Calm     51% 0.00in /  0mm 0.0 W/m2
01:10 50.4 °F /  10.2 °C 33.4 °F /  0.8 °C 30.03in /  1016.8hPa Calm   1.0mph /  1.6km/h 52% 0.00in /  0mm 0.0 W/m2
01:16 50.4 °F /  10.2 °C 32.9 °F /  0.5 °C 30.03in /  1016.8hPa Calm   2.0mph /  3.2km/h 51% 0.00in /  0mm 0.0 W/m2
01:24 50.4 °F /  10.2 °C 32.9 °F /  0.5 °C 30.03in /  1016.8hPa Calm   2.0mph /  3.2km/h 51% 0.00in /  0mm 0.0 W/m2
01:30 50.4 °F /  10.2 °C 32.9 °F /  0.5 °C 30.03in /  1016.8hPa Calm   2.0mph /  3.2km/h 51% 0.00in /  0mm 0.0 W/m2
01:36 50.4 °F /  10.2 °C 32.9 °F /  0.5 °C 30.03in /  1016.8hPa Calm   1.0mph /  1.6km/h 51% 0.00in /  0mm 0.0 W/m2
01:42 50.4 °F /  10.2 °C 32.9 °F /  0.5 °C 30.02in /  1016.5hPa Calm   2.0mph /  3.2km/h 51% 0.00in /  0mm 0.0 W/m2
01:48 50.4 °F /  10.2 °C 32.4 °F /  0.2 °C 30.03in /  1016.8hPa Calm   3.0mph /  4.8km/h 50% 0.00in /  0mm 0.0 W/m2
01:54 50.5 °F /  10.3 °C 32.5 °F /  0.3 °C 30.03in /  1016.8hPa Calm   2.0mph /  3.2km/h 50% 0.00in /  0mm 0.0 W/m2
02:01 50.7 °F /  10.4 °C 32.7 °F /  0.4 °C 30.03in /  1016.8hPa SE 0.9mph /  1.4km/h 2.0mph /  3.2km/h 50% 0.00in /  0mm 0.0 W/m2
02:07 50.9 °F /  10.5 °C 32.9 °F /  0.5 °C 30.03in /  1016.8hPa Calm   3.0mph /  4.8km/h 50% 0.00in /  0mm 0.0 W/m2
02:13 50.9 °F /  10.5 °C 32.9 °F /  0.5 °C 30.02in /  1016.5hPa ESE 0.9mph /  1.4km/h 4.0mph /  6.4km/h 50% 0.00in /  0mm 0.0 W/m2
02:19 51.3 °F /  10.7 °C 33.3 °F /  0.7 °C 30.02in /  1016.5hPa ESE 2.0mph /  3.2km/h 3.0mph /  4.8km/h 50% 0.00in /  0mm 0.0 W/m2
02:25 51.3 °F /  10.7 °C 33.3 °F /  0.7 °C 30.02in /  1016.5hPa Calm   1.0mph /  1.6km/h 50% 0.00in /  0mm 0.0 W/m2
02:31 51.3 °F /  10.7 °C 33.3 °F /  0.7 °C 30.02in /  1016.5hPa SE 0.9mph /  1.4km/h 2.0mph /  3.2km/h 50% 0.00in /  0mm 0.0 W/m2
02:37 51.1 °F /  10.6 °C 33.6 °F /  0.9 °C 30.02in /  1016.5hPa Calm   2.0mph /  3.2km/h 51% 0.00in /  0mm 0.0 W/m2
02:44 50.7 °F /  10.4 °C 33.3 °F /  0.7 °C 30.02in /  1016.5hPa Calm   1.0mph /  1.6km/h 51% 0.00in /  0mm 0.0 W/m2
02:50 50.5 °F /  10.3 °C 33.6 °F /  0.9 °C 30.02in /  1016.5hPa Calm     52% 0.00in /  0mm 0.0 W/m2
02:56 50.2 °F /  10.1 °C 33.6 °F /  0.9 °C 30.02in /  1016.5hPa ENE 2.0mph /  3.2km/h 2.0mph /  3.2km/h 53% 0.00in /  0mm 0.0 W/m2
03:02 49.8 °F /  9.9 °C 33.4 °F /  0.8 °C 30.02in /  1016.5hPa Calm     53% 0.00in /  0mm 0.0 W/m2
03:08 49.6 °F /  9.8 °C 33.6 °F /  0.9 °C 30.02in /  1016.5hPa Calm     54% 0.00in /  0mm 0.0 W/m2
03:14 48.9 °F /  9.4 °C 32.5 °F /  0.3 °C 30.02in /  1016.5hPa Calm     53% 0.00in /  0mm 0.0 W/m2
03:21 48.7 °F /  9.3 °C 33.3 °F /  0.7 °C 30.02in /  1016.5hPa Calm   3.0mph /  4.8km/h 55% 0.00in /  0mm 0.0 W/m2
03:27 48.6 °F /  9.2 °C 33.6 °F /  0.9 °C 30.02in /  1016.5hPa Calm     56% 0.00in /  0mm 0.0 W/m2
03:33 48.4 °F /  9.1 °C 32.9 °F /  0.5 °C 30.02in /  1016.5hPa SE 0.9mph /  1.4km/h 1.0mph /  1.6km/h 55% 0.00in /  0mm 0.0 W/m2
03:39 48.4 °F /  9.1 °C 33.4 °F /  0.8 °C 30.01in /  1016.1hPa Calm     56% 0.00in /  0mm 0.0 W/m2
03:45 48.2 °F /  9 °C 33.3 °F /  0.7 °C 30.01in /  1016.1hPa Calm   1.0mph /  1.6km/h 56% 0.00in /  0mm 0.0 W/m2
03:51 48.2 °F /  9 °C 33.3 °F /  0.7 °C 30.01in /  1016.1hPa Calm   4.0mph /  6.4km/h 56% 0.00in /  0mm 0.0 W/m2
03:58 48.4 °F /  9.1 °C 33.4 °F /  0.8 °C 30.02in /  1016.5hPa Calm   1.0mph /  1.6km/h 56% 0.00in /  0mm 0.0 W/m2
04:04 48.4 °F /  9.1 °C 32.9 °F /  0.5 °C 30.02in /  1016.5hPa East 0.9mph /  1.4km/h 2.0mph /  3.2km/h 55% 0.00in /  0mm 0.0 W/m2
04:10 48.2 °F /  9 °C 33.3 °F /  0.7 °C 30.02in /  1016.5hPa East 0.9mph /  1.4km/h 2.0mph /  3.2km/h 56% 0.00in /  0mm 0.0 W/m2
04:16 48.4 °F /  9.1 °C 33.4 °F /  0.8 °C 30.02in /  1016.5hPa Calm   1.0mph /  1.6km/h 56% 0.00in /  0mm 0.0 W/m2
04:22 48.4 °F /  9.1 °C 33.4 °F /  0.8 °C 30.02in /  1016.5hPa Calm   1.0mph /  1.6km/h 56% 0.00in /  0mm 0.0 W/m2
04:28 48.4 °F /  9.1 °C 33.8 °F /  1 °C 30.02in /  1016.5hPa Calm     57% 0.00in /  0mm 0.0 W/m2
04:34 48.0 °F /  8.9 °C 33.1 °F /  0.6 °C 30.03in /  1016.8hPa Calm     56% 0.00in /  0mm 0.0 W/m2
04:40 47.8 °F /  8.8 °C 32.9 °F /  0.5 °C 30.02in /  1016.5hPa Calm   2.0mph /  3.2km/h 56% 0.00in /  0mm 0.0 W/m2
04:46 47.7 °F /  8.7 °C 33.3 °F /  0.7 °C 30.02in /  1016.5hPa ESE 2.0mph /  3.2km/h 2.0mph /  3.2km/h 57% 0.00in /  0mm 0.0 W/m2
04:53 47.7 °F /  8.7 °C 32.7 °F /  0.4 °C 30.02in /  1016.5hPa East 0.9mph /  1.4km/h 2.0mph /  3.2km/h 56% 0.00in /  0mm 0.0 W/m2
04:59 47.8 °F /  8.8 °C 32.9 °F /  0.5 °C 30.02in /  1016.5hPa Calm   2.0mph /  3.2km/h 56% 0.00in /  0mm 0.0 W/m2
05:05 48.0 °F /  8.9 °C 33.1 °F /  0.6 °C 30.02in /  1016.5hPa Calm   1.0mph /  1.6km/h 56% 0.00in /  0mm 0.0 W/m2
05:11 48.0 °F /  8.9 °C 33.1 °F /  0.6 °C 30.02in /  1016.5hPa Calm     56% 0.00in /  0mm 0.0 W/m2
05:17 48.0 °F /  8.9 °C 33.1 °F /  0.6 °C 30.02in /  1016.5hPa ESE 2.0mph /  3.2km/h 2.0mph /  3.2km/h 56% 0.00in /  0mm 0.0 W/m2
05:23 48.0 °F /  8.9 °C 32.5 °F /  0.3 °C 30.03in /  1016.8hPa East 0.9mph /  1.4km/h 2.0mph /  3.2km/h 55% 0.00in /  0mm 0.0 W/m2
05:29 48.0 °F /  8.9 °C 32.5 °F /  0.3 °C 30.02in /  1016.5hPa East 0.9mph /  1.4km/h 4.0mph /  6.4km/h 55% 0.00in /  0mm 0.0 W/m2
05:36 48.0 °F /  8.9 °C 32.5 °F /  0.3 °C 30.03in /  1016.8hPa Calm   2.0mph /  3.2km/h 55% 0.00in /  0mm 0.0 W/m2
05:42 48.0 °F /  8.9 °C 32.5 °F /  0.3 °C 30.03in /  1016.8hPa Calm   2.0mph /  3.2km/h 55% 0.00in /  0mm 0.0 W/m2
05:48 48.2 °F /  9 °C 32.4 °F /  0.2 °C 30.03in /  1016.8hPa Calm   3.0mph /  4.8km/h 54% 0.00in /  0mm 0.0 W/m2
05:54 48.6 °F /  9.2 °C 32.7 °F /  0.4 °C 30.03in /  1016.8hPa East 0.9mph /  1.4km/h 3.0mph /  4.8km/h 54% 0.00in /  0mm 0.0 W/m2
06:00 48.6 °F /  9.2 °C 33.1 °F /  0.6 °C 30.03in /  1016.8hPa Calm   4.0mph /  6.4km/h 55% 0.00in /  0mm 0.0 W/m2
06:06 48.6 °F /  9.2 °C 32.7 °F /  0.4 °C 30.03in /  1016.8hPa East 0.9mph /  1.4km/h 6.0mph /  9.7km/h 54% 0.00in /  0mm 0.0 W/m2
06:12 48.7 °F /  9.3 °C 32.9 °F /  0.5 °C 30.03in /  1016.8hPa Calm   5.0mph /  8km/h 54% 0.00in /  0mm 0.0 W/m2
06:19 48.7 °F /  9.3 °C 33.3 °F /  0.7 °C 30.04in /  1017.2hPa NE 0.9mph /  1.4km/h 2.0mph /  3.2km/h 55% 0.00in /  0mm 5.0 W/m2
06:25 48.9 °F /  9.4 °C 33.4 °F /  0.8 °C 30.04in /  1017.2hPa ENE 2.0mph /  3.2km/h 2.0mph /  3.2km/h 55% 0.00in /  0mm 7.0 W/m2
06:31 49.3 °F /  9.6 °C 33.3 °F /  0.7 °C 30.04in /  1017.2hPa ESE 0.9mph /  1.4km/h 4.0mph /  6.4km/h 54% 0.00in /  0mm 9.0 W/m2
06:37 49.3 °F /  9.6 °C 33.8 °F /  1 °C 30.04in /  1017.2hPa Calm   3.0mph /  4.8km/h 55% 0.00in /  0mm 11.0 W/m2
06:45 49.3 °F /  9.6 °C 33.8 °F /  1 °C 30.05in /  1017.5hPa Calm   2.0mph /  3.2km/h 55% 0.00in /  0mm 12.0 W/m2
06:51 49.5 °F /  9.7 °C 34.0 °F /  1.1 °C 30.05in /  1017.5hPa ESE 2.9mph /  4.7km/h 3.0mph /  4.8km/h 55% 0.00in /  0mm 14.0 W/m2
06:57 49.6 °F /  9.8 °C 34.2 °F /  1.2 °C 30.05in /  1017.5hPa NE 0.9mph /  1.4km/h 3.0mph /  4.8km/h 55% 0.00in /  0mm 16.0 W/m2
07:03 49.8 °F /  9.9 °C 34.3 °F /  1.3 °C 30.06in /  1017.8hPa Calm   3.0mph /  4.8km/h 55% 0.00in /  0mm 18.0 W/m2
07:10 50.4 °F /  10.2 °C 34.9 °F /  1.6 °C 30.06in /  1017.8hPa NE 2.9mph /  4.7km/h 4.0mph /  6.4km/h 55% 0.00in /  0mm 18.0 W/m2
07:16 50.9 °F /  10.5 °C 35.2 °F /  1.8 °C 30.06in /  1017.8hPa Calm   1.0mph /  1.6km/h 55% 0.00in /  0mm 19.0 W/m2
07:22 51.4 °F /  10.8 °C 35.4 °F /  1.9 °C 30.06in /  1017.8hPa Calm   3.0mph /  4.8km/h 54% 0.00in /  0mm 21.0 W/m2
07:28 52.3 °F /  11.3 °C 35.8 °F /  2.1 °C 30.06in /  1017.8hPa Calm   3.0mph /  4.8km/h 53% 0.00in /  0mm 21.0 W/m2
07:34 53.2 °F /  11.8 °C 36.5 °F /  2.5 °C 30.06in /  1017.8hPa East 2.9mph /  4.7km/h 4.0mph /  6.4km/h 53% 0.00in /  0mm 23.0 W/m2
07:42 54.3 °F /  12.4 °C 35.6 °F /  2 °C 30.06in /  1017.8hPa East 2.0mph /  3.2km/h 5.0mph /  8km/h 49% 0.00in /  0mm 25.0 W/m2
07:49 55.8 °F /  13.2 °C 36.3 °F /  2.4 °C 30.06in /  1017.8hPa ESE 2.9mph /  4.7km/h 7.0mph /  11.3km/h 48% 0.00in /  0mm 26.0 W/m2
07:55 56.7 °F /  13.7 °C 36.7 °F /  2.6 °C 30.06in /  1017.8hPa ESE 2.0mph /  3.2km/h 3.0mph /  4.8km/h 47% 0.00in /  0mm 26.0 W/m2
08:01 57.7 °F /  14.3 °C 37.0 °F /  2.8 °C 30.06in /  1017.8hPa ENE 2.0mph /  3.2km/h 8.0mph /  12.9km/h 46% 0.00in /  0mm 28.0 W/m2
08:05 58.5 °F /  14.7 °C 36.0 °F /  2.2 °C 30.06in /  1017.8hPa Calm   8.0mph /  12.9km/h 43% 0.00in /  0mm 28.0 W/m2
08:11 59.7 °F /  15.4 °C 36.5 °F /  2.5 °C 30.06in /  1017.8hPa East 4.9mph /  7.9km/h 6.0mph /  9.7km/h 42% 0.00in /  0mm 381.0 W/m2
08:18 61.2 °F /  16.2 °C 37.2 °F /  2.9 °C 30.06in /  1017.8hPa Calm   5.0mph /  8km/h 41% 0.00in /  0mm 403.0 W/m2
08:26 62.8 °F /  17.1 °C 36.9 °F /  2.7 °C 30.06in /  1017.8hPa ENE 2.9mph /  4.7km/h 5.0mph /  8km/h 38% 0.00in /  0mm 432.0 W/m2
08:32 64.4 °F /  18 °C 36.9 °F /  2.7 °C 30.06in /  1017.8hPa ESE 2.9mph /  4.7km/h 6.0mph /  9.7km/h 36% 0.00in /  0mm 450.0 W/m2
08:38 65.7 °F /  18.7 °C 37.2 °F /  2.9 °C 30.06in /  1017.8hPa ENE 6.0mph /  9.7km/h 7.0mph /  11.3km/h 35% 0.00in /  0mm 471.0 W/m2
08:44 66.6 °F /  19.2 °C 37.4 °F /  3 °C 30.06in /  1017.8hPa East 2.0mph /  3.2km/h 4.0mph /  6.4km/h 34% 0.00in /  0mm 490.0 W/m2
08:52 67.6 °F /  19.8 °C 37.6 °F /  3.1 °C 30.06in /  1017.8hPa East 2.0mph /  3.2km/h 7.0mph /  11.3km/h 33% 0.00in /  0mm 515.0 W/m2
08:58 68.7 °F /  20.4 °C 37.6 °F /  3.1 °C 30.06in /  1017.8hPa NNE 2.9mph /  4.7km/h 5.0mph /  8km/h 32% 0.00in /  0mm 529.0 W/m2
09:06 69.6 °F /  20.9 °C 36.9 °F /  2.7 °C 30.06in /  1017.8hPa NE 0.9mph /  1.4km/h 4.0mph /  6.4km/h 30% 0.00in /  0mm 552.0 W/m2
09:12 70.3 °F /  21.3 °C 36.5 °F /  2.5 °C 30.06in /  1017.8hPa WSW 0.9mph /  1.4km/h 1.0mph /  1.6km/h 29% 0.00in /  0mm 568.0 W/m2
09:19 70.3 °F /  21.3 °C 38.3 °F /  3.5 °C 30.06in /  1017.8hPa Calm   1.0mph /  1.6km/h 31% 0.00in /  0mm 587.0 W/m2
09:25 70.3 °F /  21.3 °C 37.4 °F /  3 °C 30.06in /  1017.8hPa WSW 0.9mph /  1.4km/h 3.0mph /  4.8km/h 30% 0.00in /  0mm 601.0 W/m2
09:31 71.1 °F /  21.7 °C 36.3 °F /  2.4 °C 30.06in /  1017.8hPa SSE 4.9mph /  7.9km/h 5.0mph /  8km/h 28% 0.00in /  0mm 617.0 W/m2
09:37 71.8 °F /  22.1 °C 33.1 °F /  0.6 °C 30.06in /  1017.8hPa SSW 2.0mph /  3.2km/h 6.0mph /  9.7km/h 24% 0.00in /  0mm 631.0 W/m2
09:43 72.0 °F /  22.2 °C 31.1 °F /  -0.5 °C 30.06in /  1017.8hPa SSE 2.9mph /  4.7km/h 8.0mph /  12.9km/h 22% 0.00in /  0mm 645.0 W/m2
09:49 72.1 °F /  22.3 °C 31.1 °F /  -0.5 °C 30.06in /  1017.8hPa SE 6.9mph /  11.1km/h 7.0mph /  11.3km/h 22% 0.00in /  0mm 656.0 W/m2
09:55 72.3 °F /  22.4 °C 31.3 °F /  -0.4 °C 30.06in /  1017.8hPa SSE 4.9mph /  7.9km/h 9.0mph /  14.5km/h 22% 0.00in /  0mm 670.0 W/m2
10:02 72.7 °F /  22.6 °C 31.6 °F /  -0.2 °C 30.06in /  1017.8hPa SSE 4.9mph /  7.9km/h 5.0mph /  8km/h 22% 0.00in /  0mm 679.0 W/m2
10:08 72.9 °F /  22.7 °C 31.8 °F /  -0.1 °C 30.06in /  1017.8hPa SSW 6.0mph /  9.7km/h 10.0mph /  16.1km/h 22% 0.00in /  0mm 689.0 W/m2
10:14 72.9 °F /  22.7 °C 30.6 °F /  -0.8 °C 30.05in /  1017.5hPa SSW 2.0mph /  3.2km/h 5.0mph /  8km/h 21% 0.00in /  0mm 700.0 W/m2
10:20 72.9 °F /  22.7 °C 31.8 °F /  -0.1 °C 30.05in /  1017.5hPa SE 4.0mph /  6.4km/h 11.0mph /  17.7km/h 22% 0.00in /  0mm 708.0 W/m2
10:26 73.2 °F /  22.9 °C 30.9 °F /  -0.6 °C 30.05in /  1017.5hPa SE 2.9mph /  4.7km/h 13.0mph /  20.9km/h 21% 0.00in /  0mm 717.0 W/m2
10:32 73.2 °F /  22.9 °C 32.2 °F /  0.1 °C 30.05in /  1017.5hPa SSE 4.0mph /  6.4km/h 8.0mph /  12.9km/h 22% 0.00in /  0mm 724.0 W/m2
10:38 73.2 °F /  22.9 °C 30.9 °F /  -0.6 °C 30.04in /  1017.2hPa SSE 4.9mph /  7.9km/h 9.0mph /  14.5km/h 21% 0.00in /  0mm 731.0 W/m2
10:44 73.2 °F /  22.9 °C 32.2 °F /  0.1 °C 30.04in /  1017.2hPa SSW 4.0mph /  6.4km/h 4.0mph /  6.4km/h 22% 0.00in /  0mm 740.0 W/m2
10:50 73.4 °F /  23 °C 32.2 °F /  0.1 °C 30.04in /  1017.2hPa SSE 4.9mph /  7.9km/h 7.0mph /  11.3km/h 22% 0.00in /  0mm 745.0 W/m2
10:56 73.6 °F /  23.1 °C 31.3 °F /  -0.4 °C 30.04in /  1017.2hPa ESE 4.9mph /  7.9km/h 10.0mph /  16.1km/h 21% 0.00in /  0mm 752.0 W/m2
11:03 73.8 °F /  23.2 °C 32.5 °F /  0.3 °C 30.04in /  1017.2hPa South 4.9mph /  7.9km/h 7.0mph /  11.3km/h 22% 0.00in /  0mm 756.0 W/m2
11:09 73.9 °F /  23.3 °C 32.7 °F /  0.4 °C 30.04in /  1017.2hPa South 4.9mph /  7.9km/h 7.0mph /  11.3km/h 22% 0.00in /  0mm 759.0 W/m2
11:15 74.1 °F /  23.4 °C 32.9 °F /  0.5 °C 30.03in /  1016.8hPa SSE 2.0mph /  3.2km/h 8.0mph /  12.9km/h 22% 0.00in /  0mm 763.0 W/m2
11:21 74.1 °F /  23.4 °C 32.9 °F /  0.5 °C 30.03in /  1016.8hPa ESE 2.0mph /  3.2km/h 12.0mph /  19.3km/h 22% 0.00in /  0mm 766.0 W/m2
11:27 74.3 °F /  23.5 °C 33.1 °F /  0.6 °C 30.03in /  1016.8hPa South 4.0mph /  6.4km/h 7.0mph /  11.3km/h 22% 0.00in /  0mm 768.0 W/m2
11:33 74.5 °F /  23.6 °C 30.7 °F /  -0.7 °C 30.03in /  1016.8hPa South 0.9mph /  1.4km/h 9.0mph /  14.5km/h 20% 0.00in /  0mm 768.0 W/m2
11:41 74.1 °F /  23.4 °C 31.6 °F /  -0.2 °C 30.02in /  1016.5hPa SSW 6.9mph /  11.1km/h 14.0mph /  22.5km/h 21% 0.00in /  0mm 770.0 W/m2
11:47 73.9 °F /  23.3 °C 31.5 °F /  -0.3 °C 30.02in /  1016.5hPa South 2.9mph /  4.7km/h 6.0mph /  9.7km/h 21% 0.00in /  0mm 773.0 W/m2
11:54 74.3 °F /  23.5 °C 33.1 °F /  0.6 °C 30.02in /  1016.5hPa NE 0.9mph /  1.4km/h 5.0mph /  8km/h 22% 0.00in /  0mm 772.0 W/m2
12:00 73.8 °F /  23.2 °C 32.5 °F /  0.3 °C 30.02in /  1016.5hPa Calm   5.0mph /  8km/h 22% 0.00in /  0mm 770.0 W/m2
12:06 74.1 °F /  23.4 °C 32.9 °F /  0.5 °C 30.01in /  1016.1hPa Calm   3.0mph /  4.8km/h 22% 0.00in /  0mm 766.0 W/m2
12:12 73.9 °F /  23.3 °C 31.5 °F /  -0.3 °C 30.01in /  1016.1hPa West 4.9mph /  7.9km/h 5.0mph /  8km/h 21% 0.00in /  0mm 765.0 W/m2
12:18 73.6 °F /  23.1 °C 31.3 °F /  -0.4 °C 30.01in /  1016.1hPa SE 2.9mph /  4.7km/h 9.0mph /  14.5km/h 21% 0.00in /  0mm 759.0 W/m2
12:24 73.6 °F /  23.1 °C 31.3 °F /  -0.4 °C 30.01in /  1016.1hPa South 0.9mph /  1.4km/h 8.0mph /  12.9km/h 21% 0.00in /  0mm 758.0 W/m2
12:30 73.9 °F /  23.3 °C 31.5 °F /  -0.3 °C 30.01in /  1016.1hPa Calm   5.0mph /  8km/h 21% 0.00in /  0mm 751.0 W/m2
12:36 74.5 °F /  23.6 °C 32.0 °F /  0 °C 30.00in /  1015.8hPa SSE 4.0mph /  6.4km/h 5.0mph /  8km/h 21% 0.00in /  0mm 745.0 W/m2
12:46 75.4 °F /  24.1 °C 31.5 °F /  -0.3 °C 30.00in /  1015.8hPa SW 0.9mph /  1.4km/h 4.0mph /  6.4km/h 20% 0.00in /  0mm 737.0 W/m2
12:52 75.4 °F /  24.1 °C 31.5 °F /  -0.3 °C 29.99in /  1015.5hPa West 4.9mph /  7.9km/h 10.0mph /  16.1km/h 20% 0.00in /  0mm 726.0 W/m2
12:58 74.7 °F /  23.7 °C 32.2 °F /  0.1 °C 29.99in /  1015.5hPa ESE 2.0mph /  3.2km/h 4.0mph /  6.4km/h 21% 0.00in /  0mm 719.0 W/m2
13:04 74.8 °F /  23.8 °C 32.4 °F /  0.2 °C 29.99in /  1015.5hPa South 4.0mph /  6.4km/h 6.0mph /  9.7km/h 21% 0.00in /  0mm 712.0 W/m2
13:11 75.2 °F /  24 °C 32.5 °F /  0.3 °C 29.99in /  1015.5hPa SE 2.9mph /  4.7km/h 8.0mph /  12.9km/h 21% 0.00in /  0mm 696.0 W/m2
13:16 75.4 °F /  24.1 °C 32.7 °F /  0.4 °C 29.98in /  1015.1hPa SSW 4.0mph /  6.4km/h 7.0mph /  11.3km/h 21% 0.00in /  0mm 689.0 W/m2
13:23 75.0 °F /  23.9 °C 32.4 °F /  0.2 °C 29.98in /  1015.1hPa South 0.9mph /  1.4km/h 7.0mph /  11.3km/h 21% 0.00in /  0mm 680.0 W/m2
13:29 75.0 °F /  23.9 °C 31.3 °F /  -0.4 °C 29.98in /  1015.1hPa Calm   9.0mph /  14.5km/h 20% 0.00in /  0mm 670.0 W/m2
13:35 75.0 °F /  23.9 °C 31.3 °F /  -0.4 °C 29.98in /  1015.1hPa West 2.9mph /  4.7km/h 7.0mph /  11.3km/h 20% 0.00in /  0mm 657.0 W/m2
13:41 75.4 °F /  24.1 °C 31.5 °F /  -0.3 °C 29.97in /  1014.8hPa South 4.9mph /  7.9km/h 10.0mph /  16.1km/h 20% 0.00in /  0mm 645.0 W/m2
13:47 75.7 °F /  24.3 °C 31.8 °F /  -0.1 °C 29.97in /  1014.8hPa SSE 6.9mph /  11.1km/h 10.0mph /  16.1km/h 20% 0.00in /  0mm 633.0 W/m2
13:53 75.6 °F /  24.2 °C 31.6 °F /  -0.2 °C 29.97in /  1014.8hPa SSW 2.0mph /  3.2km/h 8.0mph /  12.9km/h 20% 0.00in /  0mm 619.0 W/m2
13:59 75.2 °F /  24 °C 31.5 °F /  -0.3 °C 29.97in /  1014.8hPa South 6.9mph /  11.1km/h 11.0mph /  17.7km/h 20% 0.00in /  0mm 605.0 W/m2
14:05 75.4 °F /  24.1 °C 31.5 °F /  -0.3 °C 29.97in /  1014.8hPa SSE 2.9mph /  4.7km/h 8.0mph /  12.9km/h 20% 0.00in /  0mm 591.0 W/m2
14:11 75.4 °F /  24.1 °C 30.2 °F /  -1 °C 29.96in /  1014.4hPa South 2.0mph /  3.2km/h 9.0mph /  14.5km/h 19% 0.00in /  0mm 578.0 W/m2
14:17 75.4 °F /  24.1 °C 30.2 °F /  -1 °C 29.96in /  1014.4hPa SSW 4.0mph /  6.4km/h 11.0mph /  17.7km/h 19% 0.00in /  0mm 563.0 W/m2
14:23 75.4 °F /  24.1 °C 30.2 °F /  -1 °C 29.97in /  1014.8hPa ESE 4.9mph /  7.9km/h 6.0mph /  9.7km/h 19% 0.00in /  0mm 547.0 W/m2
14:25 75.4 °F /  24.1 °C 30.2 °F /  -1 °C 29.96in /  1014.4hPa ESE 2.0mph /  3.2km/h 7.0mph /  11.3km/h 19% 0.00in /  0mm 541.0 W/m2
14:31 75.4 °F /  24.1 °C 30.2 °F /  -1 °C 29.96in /  1014.4hPa Calm   8.0mph /  12.9km/h 19% 0.00in /  0mm 524.0 W/m2
14:37 75.6 °F /  24.2 °C 29.1 °F /  -1.6 °C 29.96in /  1014.4hPa NE 2.0mph /  3.2km/h 6.0mph /  9.7km/h 18% 0.00in /  0mm 504.0 W/m2
14:43 75.6 °F /  24.2 °C 30.4 °F /  -0.9 °C 29.96in /  1014.4hPa West 2.0mph /  3.2km/h 8.0mph /  12.9km/h 19% 0.00in /  0mm 489.0 W/m2
14:49 75.6 °F /  24.2 °C 30.4 °F /  -0.9 °C 29.96in /  1014.4hPa SSE 6.0mph /  9.7km/h 6.0mph /  9.7km/h 19% 0.00in /  0mm 471.0 W/m2
14:55 75.2 °F /  24 °C 30.0 °F /  -1.1 °C 29.96in /  1014.4hPa SW 4.0mph /  6.4km/h 7.0mph /  11.3km/h 19% 0.00in /  0mm 452.0 W/m2
15:01 74.8 °F /  23.8 °C 29.8 °F /  -1.2 °C 29.97in /  1014.8hPa SSE 4.0mph /  6.4km/h 6.0mph /  9.7km/h 19% 0.00in /  0mm 434.0 W/m2
15:07 74.8 °F /  23.8 °C 29.8 °F /  -1.2 °C 29.97in /  1014.8hPa South 0.9mph /  1.4km/h 5.0mph /  8km/h 19% 0.00in /  0mm 415.0 W/m2
15:13 74.7 °F /  23.7 °C 29.7 °F /  -1.3 °C 29.97in /  1014.8hPa Calm   8.0mph /  12.9km/h 19% 0.00in /  0mm 396.0 W/m2
15:19 74.1 °F /  23.4 °C 29.3 °F /  -1.5 °C 29.97in /  1014.8hPa SW 0.9mph /  1.4km/h 4.0mph /  6.4km/h 19% 0.00in /  0mm 376.0 W/m2
15:25 73.8 °F /  23.2 °C 28.9 °F /  -1.7 °C 29.97in /  1014.8hPa Calm   6.0mph /  9.7km/h 19% 0.00in /  0mm 355.0 W/m2
15:32 73.2 °F /  22.9 °C 29.7 °F /  -1.3 °C 29.97in /  1014.8hPa SSW 0.9mph /  1.4km/h 5.0mph /  8km/h 20% 0.00in /  0mm 336.0 W/m2
15:37 73.0 °F /  22.8 °C 28.4 °F /  -2 °C 29.97in /  1014.8hPa SW 0.9mph /  1.4km/h 7.0mph /  11.3km/h 19% 0.00in /  0mm 40.0 W/m2
15:43 73.0 °F /  22.8 °C 28.4 °F /  -2 °C 29.97in /  1014.8hPa SSW 2.9mph /  4.7km/h 4.0mph /  6.4km/h 19% 0.00in /  0mm 37.0 W/m2
15:49 72.9 °F /  22.7 °C 28.2 °F /  -2.1 °C 29.97in /  1014.8hPa Calm   3.0mph /  4.8km/h 19% 0.00in /  0mm 33.0 W/m2
15:55 72.7 °F /  22.6 °C 29.3 °F /  -1.5 °C 29.97in /  1014.8hPa WSW 0.9mph /  1.4km/h 4.0mph /  6.4km/h 20% 0.00in /  0mm 32.0 W/m2
16:01 72.3 °F /  22.4 °C 27.7 °F /  -2.4 °C 29.97in /  1014.8hPa South 0.9mph /  1.4km/h 7.0mph /  11.3km/h 19% 0.00in /  0mm 28.0 W/m2
16:07 72.0 °F /  22.2 °C 28.8 °F /  -1.8 °C 29.98in /  1015.1hPa SE 6.0mph /  9.7km/h 7.0mph /  11.3km/h 20% 0.00in /  0mm 23.0 W/m2
16:13 71.8 °F /  22.1 °C 28.6 °F /  -1.9 °C 29.98in /  1015.1hPa Calm   5.0mph /  8km/h 20% 0.00in /  0mm 21.0 W/m2
16:19 71.6 °F /  22 °C 28.4 °F /  -2 °C 29.98in /  1015.1hPa SSW 6.0mph /  9.7km/h 6.0mph /  9.7km/h 20% 0.00in /  0mm 21.0 W/m2
16:25 71.2 °F /  21.8 °C 28.0 °F /  -2.2 °C 29.98in /  1015.1hPa SSW 2.0mph /  3.2km/h 6.0mph /  9.7km/h 20% 0.00in /  0mm 19.0 W/m2
16:31 71.1 °F /  21.7 °C 28.0 °F /  -2.2 °C 29.98in /  1015.1hPa SE 0.9mph /  1.4km/h 6.0mph /  9.7km/h 20% 0.00in /  0mm 18.0 W/m2
16:37 70.9 °F /  21.6 °C 27.9 °F /  -2.3 °C 29.98in /  1015.1hPa SSE 0.9mph /  1.4km/h 2.0mph /  3.2km/h 20% 0.00in /  0mm 23.0 W/m2
16:43 70.5 °F /  21.4 °C 27.5 °F /  -2.5 °C 29.99in /  1015.5hPa SSE 4.0mph /  6.4km/h 7.0mph /  11.3km/h 20% 0.00in /  0mm 16.0 W/m2
16:49 70.3 °F /  21.3 °C 27.3 °F /  -2.6 °C 29.99in /  1015.5hPa South 0.9mph /  1.4km/h 3.0mph /  4.8km/h 20% 0.00in /  0mm 14.0 W/m2
16:55 70.0 °F /  21.1 °C 27.1 °F /  -2.7 °C 29.99in /  1015.5hPa Calm   4.0mph /  6.4km/h 20% 0.00in /  0mm 12.0 W/m2
17:01 69.6 °F /  20.9 °C 26.8 °F /  -2.9 °C 30.00in /  1015.8hPa Calm     20% 0.00in /  0mm 11.0 W/m2
17:08 69.3 °F /  20.7 °C 28.8 °F /  -1.8 °C 30.00in /  1015.8hPa Calm     22% 0.00in /  0mm 9.0 W/m2
17:14 68.9 °F /  20.5 °C 28.4 °F /  -2 °C 30.00in /  1015.8hPa Calm     22% 0.00in /  0mm 5.0 W/m2
17:20 68.4 °F /  20.2 °C 29.1 °F /  -1.6 °C 30.00in /  1015.8hPa Calm     23% 0.00in /  0mm 0.0 W/m2
17:26 67.6 °F /  19.8 °C 29.5 °F /  -1.4 °C 30.00in /  1015.8hPa Calm     24% 0.00in /  0mm 0.0 W/m2
17:32 66.9 °F /  19.4 °C 28.9 °F /  -1.7 °C 30.00in /  1015.8hPa Calm     24% 0.00in /  0mm 0.0 W/m2
17:38 66.4 °F /  19.1 °C 28.4 °F /  -2 °C 30.00in /  1015.8hPa Calm     24% 0.00in /  0mm 0.0 W/m2
17:44 65.7 °F /  18.7 °C 28.9 °F /  -1.7 °C 30.00in /  1015.8hPa Calm   1.0mph /  1.6km/h 25% 0.00in /  0mm 0.0 W/m2
17:50 65.1 °F /  18.4 °C 29.3 °F /  -1.5 °C 30.01in /  1016.1hPa Calm     26% 0.00in /  0mm 0.0 W/m2
17:56 64.6 °F /  18.1 °C 28.9 °F /  -1.7 °C 30.01in /  1016.1hPa Calm     26% 0.00in /  0mm 0.0 W/m2
18:02 63.9 °F /  17.7 °C 30.2 °F /  -1 °C 30.01in /  1016.1hPa Calm     28% 0.00in /  0mm 0.0 W/m2
18:08 63.1 °F /  17.3 °C 29.5 °F /  -1.4 °C 30.01in /  1016.1hPa Calm   1.0mph /  1.6km/h 28% 0.00in /  0mm 0.0 W/m2
18:14 62.4 °F /  16.9 °C 29.7 °F /  -1.3 °C 30.01in /  1016.1hPa Calm     29% 0.00in /  0mm 0.0 W/m2
18:20 61.9 °F /  16.6 °C 30.0 °F /  -1.1 °C 30.01in /  1016.1hPa Calm     30% 0.00in /  0mm 0.0 W/m2
18:26 61.3 °F /  16.3 °C 30.4 °F /  -0.9 °C 30.02in /  1016.5hPa Calm     31% 0.00in /  0mm 0.0 W/m2
18:32 60.8 °F /  16 °C 30.7 °F /  -0.7 °C 30.02in /  1016.5hPa Calm     32% 0.00in /  0mm 0.0 W/m2
18:38 60.3 °F /  15.7 °C 31.1 °F /  -0.5 °C 30.02in /  1016.5hPa Calm     33% 0.00in /  0mm 0.0 W/m2
18:44 59.7 °F /  15.4 °C 31.3 °F /  -0.4 °C 30.02in /  1016.5hPa Calm     34% 0.00in /  0mm 0.0 W/m2
18:50 59.4 °F /  15.2 °C 30.9 °F /  -0.6 °C 30.02in /  1016.5hPa Calm     34% 0.00in /  0mm 0.0 W/m2
18:56 58.8 °F /  14.9 °C 32.0 °F /  0 °C 30.03in /  1016.8hPa Calm     36% 0.00in /  0mm 0.0 W/m2
19:02 58.5 °F /  14.7 °C 32.4 °F /  0.2 °C 30.03in /  1016.8hPa Calm     37% 0.00in /  0mm 0.0 W/m2
19:08 58.1 °F /  14.5 °C 32.0 °F /  0 °C 30.03in /  1016.8hPa Calm     37% 0.00in /  0mm 0.0 W/m2
19:14 57.7 °F /  14.3 °C 32.4 °F /  0.2 °C 30.03in /  1016.8hPa East 0.9mph /  1.4km/h 1.0mph /  1.6km/h 38% 0.00in /  0mm 0.0 W/m2
19:20 57.4 °F /  14.1 °C 31.3 °F /  -0.4 °C 30.03in /  1016.8hPa Calm   1.0mph /  1.6km/h 37% 0.00in /  0mm 0.0 W/m2
19:26 57.2 °F /  14 °C 30.6 °F /  -0.8 °C 30.03in /  1016.8hPa Calm   1.0mph /  1.6km/h 36% 0.00in /  0mm 0.0 W/m2
19:32 57.6 °F /  14.2 °C 30.7 °F /  -0.7 °C 30.03in /  1016.8hPa East 0.9mph /  1.4km/h 1.0mph /  1.6km/h 36% 0.00in /  0mm 0.0 W/m2
19:38 57.6 °F /  14.2 °C 30.7 °F /  -0.7 °C 30.04in /  1017.2hPa Calm   2.0mph /  3.2km/h 36% 0.00in /  0mm 0.0 W/m2
19:44 57.6 °F /  14.2 °C 31.5 °F /  -0.3 °C 30.04in /  1017.2hPa Calm   2.0mph /  3.2km/h 37% 0.00in /  0mm 0.0 W/m2
19:50 57.4 °F /  14.1 °C 31.3 °F /  -0.4 °C 30.04in /  1017.2hPa Calm   2.0mph /  3.2km/h 37% 0.00in /  0mm 0.0 W/m2
19:56 57.6 °F /  14.2 °C 30.7 °F /  -0.7 °C 30.05in /  1017.5hPa Calm   4.0mph /  6.4km/h 36% 0.00in /  0mm 0.0 W/m2
20:02 57.6 °F /  14.2 °C 30.7 °F /  -0.7 °C 30.05in /  1017.5hPa East 0.9mph /  1.4km/h 5.0mph /  8km/h 36% 0.00in /  0mm 0.0 W/m2
20:08 57.4 °F /  14.1 °C 30.6 °F /  -0.8 °C 30.05in /  1017.5hPa Calm   4.0mph /  6.4km/h 36% 0.00in /  0mm 0.0 W/m2
20:16 57.4 °F /  14.1 °C 31.3 °F /  -0.4 °C 30.05in /  1017.5hPa Calm   4.0mph /  6.4km/h 37% 0.00in /  0mm 0.0 W/m2
20:22 57.0 °F /  13.9 °C 30.9 °F /  -0.6 °C 30.06in /  1017.8hPa NE 0.9mph /  1.4km/h 2.0mph /  3.2km/h 37% 0.00in /  0mm 0.0 W/m2
20:28 56.8 °F /  13.8 °C 30.9 °F /  -0.6 °C 30.06in /  1017.8hPa Calm   1.0mph /  1.6km/h 37% 0.00in /  0mm 0.0 W/m2
20:34 56.7 °F /  13.7 °C 30.7 °F /  -0.7 °C 30.06in /  1017.8hPa NE 0.9mph /  1.4km/h 1.0mph /  1.6km/h 37% 0.00in /  0mm 0.0 W/m2
20:40 56.5 °F /  13.6 °C 31.1 °F /  -0.5 °C 30.06in /  1017.8hPa Calm     38% 0.00in /  0mm 0.0 W/m2
20:46 56.3 °F /  13.5 °C 31.1 °F /  -0.5 °C 30.06in /  1017.8hPa Calm   4.0mph /  6.4km/h 38% 0.00in /  0mm 0.0 W/m2
20:52 56.1 °F /  13.4 °C 31.5 °F /  -0.3 °C 30.06in /  1017.8hPa Calm   5.0mph /  8km/h 39% 0.00in /  0mm 0.0 W/m2
20:58 55.9 °F /  13.3 °C 31.3 °F /  -0.4 °C 30.06in /  1017.8hPa Calm   1.0mph /  1.6km/h 39% 0.00in /  0mm 0.0 W/m2
21:04 55.9 °F /  13.3 °C 31.3 °F /  -0.4 °C 30.06in /  1017.8hPa NE 0.9mph /  1.4km/h 2.0mph /  3.2km/h 39% 0.00in /  0mm 0.0 W/m2
21:10 55.8 °F /  13.2 °C 31.1 °F /  -0.5 °C 30.06in /  1017.8hPa Calm   1.0mph /  1.6km/h 39% 0.00in /  0mm 0.0 W/m2
21:16 55.8 °F /  13.2 °C 31.1 °F /  -0.5 °C 30.06in /  1017.8hPa Calm   3.0mph /  4.8km/h 39% 0.00in /  0mm 0.0 W/m2
21:22 55.6 °F /  13.1 °C 31.6 °F /  -0.2 °C 30.06in /  1017.8hPa Calm   3.0mph /  4.8km/h 40% 0.00in /  0mm 0.0 W/m2
21:28 55.6 °F /  13.1 °C 31.6 °F /  -0.2 °C 30.06in /  1017.8hPa Calm   1.0mph /  1.6km/h 40% 0.00in /  0mm 0.0 W/m2
21:34 55.2 °F /  12.9 °C 32.0 °F /  0 °C 30.06in /  1017.8hPa Calm   4.0mph /  6.4km/h 41% 0.00in /  0mm 0.0 W/m2
21:40 55.0 °F /  12.8 °C 31.8 °F /  -0.1 °C 30.06in /  1017.8hPa NE 4.0mph /  6.4km/h 4.0mph /  6.4km/h 41% 0.00in /  0mm 0.0 W/m2
21:46 54.9 °F /  12.7 °C 31.6 °F /  -0.2 °C 30.06in /  1017.8hPa Calm   3.0mph /  4.8km/h 41% 0.00in /  0mm 0.0 W/m2
21:52 54.7 °F /  12.6 °C 32.0 °F /  0 °C 30.06in /  1017.8hPa Calm   1.0mph /  1.6km/h 42% 0.00in /  0mm 0.0 W/m2
21:58 54.3 °F /  12.4 °C 32.4 °F /  0.2 °C 30.06in /  1017.8hPa Calm   1.0mph /  1.6km/h 43% 0.00in /  0mm 0.0 W/m2
22:04 54.1 °F /  12.3 °C 32.2 °F /  0.1 °C 30.07in /  1018.2hPa Calm     43% 0.00in /  0mm 0.0 W/m2
22:10 53.8 °F /  12.1 °C 31.8 °F /  -0.1 °C 30.07in /  1018.2hPa Calm   1.0mph /  1.6km/h 43% 0.00in /  0mm 0.0 W/m2
22:16 53.6 °F /  12 °C 32.2 °F /  0.1 °C 30.07in /  1018.2hPa Calm     44% 0.00in /  0mm 0.0 W/m2
22:22 53.4 °F /  11.9 °C 32.0 °F /  0 °C 30.07in /  1018.2hPa Calm   2.0mph /  3.2km/h 44% 0.00in /  0mm 0.0 W/m2
22:28 53.2 °F /  11.8 °C 31.8 °F /  -0.1 °C 30.07in /  1018.2hPa Calm     44% 0.00in /  0mm 0.0 W/m2
22:34 53.1 °F /  11.7 °C 32.4 °F /  0.2 °C 30.07in /  1018.2hPa Calm     45% 0.00in /  0mm 0.0 W/m2
22:40 52.9 °F /  11.6 °C 32.2 °F /  0.1 °C 30.07in /  1018.2hPa Calm   1.0mph /  1.6km/h 45% 0.00in /  0mm 0.0 W/m2
22:46 52.5 °F /  11.4 °C 31.8 °F /  -0.1 °C 30.07in /  1018.2hPa Calm   2.0mph /  3.2km/h 45% 0.00in /  0mm 0.0 W/m2
22:52 52.3 °F /  11.3 °C 31.6 °F /  -0.2 °C 30.08in /  1018.5hPa Calm   1.0mph /  1.6km/h 45% 0.00in /  0mm 0.0 W/m2
22:58 52.3 °F /  11.3 °C 32.2 °F /  0.1 °C 30.08in /  1018.5hPa Calm     46% 0.00in /  0mm 0.0 W/m2
23:04 52.2 °F /  11.2 °C 32.0 °F /  0 °C 30.08in /  1018.5hPa East 0.9mph /  1.4km/h 2.0mph /  3.2km/h 46% 0.00in /  0mm 0.0 W/m2
23:10 52.0 °F /  11.1 °C 31.8 °F /  -0.1 °C 30.07in /  1018.2hPa Calm     46% 0.00in /  0mm 0.0 W/m2
23:16 51.8 °F /  11 °C 32.2 °F /  0.1 °C 30.08in /  1018.5hPa Calm   2.0mph /  3.2km/h 47% 0.00in /  0mm 0.0 W/m2
23:22 51.6 °F /  10.9 °C 32.0 °F /  0 °C 30.08in /  1018.5hPa Calm   1.0mph /  1.6km/h 47% 0.00in /  0mm 0.0 W/m2
23:29 51.4 °F /  10.8 °C 31.8 °F /  -0.1 °C 30.07in /  1018.2hPa Calm   1.0mph /  1.6km/h 47% 0.00in /  0mm 0.0 W/m2
23:35 51.3 °F /  10.7 °C 31.6 °F /  -0.2 °C 30.07in /  1018.2hPa Calm   2.0mph /  3.2km/h 47% 0.00in /  0mm 0.0 W/m2
23:41 51.3 °F /  10.7 °C 31.6 °F /  -0.2 °C 30.07in /  1018.2hPa Calm   1.0mph /  1.6km/h 47% 0.00in /  0mm 0.0 W/m2
23:47 51.3 °F /  10.7 °C 31.6 °F /  -0.2 °C 30.07in /  1018.2hPa Calm   2.0mph /  3.2km/h 47% 0.00in /  0mm 0.0 W/m2
23:53 51.3 °F /  10.7 °C 32.2 °F /  0.1 °C 30.07in /  1018.2hPa Calm     48% 0.00in /  0mm 0.0 W/m2
23:59 51.1 °F /  10.6 °C 32.0 °F /  0 °C 30.07in /  1018.2hPa Calm     48% 0.00in /  0mm 0.0 W/m2
Olympia, Windhoek, Namibia
Compliments of Weather Underground - 3 mb